createdAt,value
2022-10-30T00:01:20.265Z,8.37
2022-10-30T00:03:47.451Z,13.27
2022-10-30T00:06:14.812Z,9.40
2022-10-30T00:08:42.048Z,10.63
2022-10-30T00:11:11.863Z,11.87
2022-10-30T00:13:39.152Z,8.80
2022-10-30T00:16:08.073Z,10.40
2022-10-30T00:18:36.975Z,10.47
2022-10-30T00:21:18.273Z,11.47
2022-10-30T00:23:50.272Z,18.73
2022-10-30T00:26:18.917Z,21.00
2022-10-30T00:28:52.942Z,18.77
2022-10-30T00:31:21.164Z,17.07
2022-10-30T00:33:54.860Z,17.67
2022-10-30T00:36:23.647Z,12.33
2022-10-30T00:38:50.842Z,11.90
2022-10-30T00:41:21.869Z,11.10
2022-10-30T00:43:49.247Z,8.47
2022-10-30T00:46:34.055Z,7.90
2022-10-30T00:49:10.365Z,8.97
2022-10-30T00:51:52.897Z,11.93
2022-10-30T00:54:28.621Z,9.90
2022-10-30T00:56:58.407Z,8.87
2022-10-30T00:59:46.352Z,13.63
2022-10-30T01:02:21.315Z,11.53
2022-10-30T01:05:27.583Z,9.33
2022-10-30T01:07:52.961Z,11.97
2022-10-30T01:10:20.599Z,10.43
2022-10-30T01:12:50.533Z,17.37
2022-10-30T01:15:26.020Z,18.63
2022-10-30T01:18:14.844Z,12.43
2022-10-30T01:21:03.755Z,9.80
2022-10-30T01:23:43.708Z,10.13
2022-10-30T01:26:32.155Z,11.20
2022-10-30T01:29:14.487Z,10.10
2022-10-30T01:32:06.456Z,7.33
2022-10-30T01:34:44.061Z,7.50
2022-10-30T01:37:32.799Z,6.73
2022-10-30T01:40:09.359Z,7.13
2022-10-30T01:42:51.947Z,7.17
2022-10-30T01:45:47.243Z,7.17
2022-10-30T01:48:32.748Z,6.43
2022-10-30T01:51:32.335Z,6.20
2022-10-30T01:54:07.939Z,6.53
2022-10-30T01:56:49.377Z,5.83
2022-10-30T01:59:32.034Z,6.50
2022-10-30T02:01:59.442Z,6.87
2022-10-30T02:04:27.073Z,5.33
2022-10-30T02:06:54.474Z,5.97
2022-10-30T02:09:21.948Z,5.33
2022-10-30T02:12:03.844Z,5.63
2022-10-30T02:14:37.426Z,7.13
2022-10-30T02:17:06.870Z,7.47
2022-10-30T02:19:34.656Z,4.90
2022-10-30T02:22:02.133Z,5.50
2022-10-30T02:24:30.583Z,6.10
2022-10-30T02:26:57.977Z,5.60
2022-10-30T02:29:25.296Z,6.50
2022-10-30T02:31:52.558Z,5.47
2022-10-30T02:34:20.321Z,5.50
2022-10-30T02:36:47.719Z,5.70
2022-10-30T02:39:15.052Z,5.83
2022-10-30T02:41:43.657Z,5.17
2022-10-30T02:44:10.780Z,5.60
2022-10-30T02:46:37.911Z,6.10
2022-10-30T02:49:07.305Z,7.07
2022-10-30T02:51:36.042Z,7.70
2022-10-30T02:54:03.719Z,6.90
2022-10-30T02:56:34.177Z,7.07
2022-10-30T02:59:15.095Z,5.27
2022-10-30T03:01:42.549Z,5.50
2022-10-30T03:04:10.062Z,6.27
2022-10-30T03:06:37.360Z,7.50
2022-10-30T03:09:04.677Z,6.87
2022-10-30T03:11:34.392Z,7.10
2022-10-30T03:14:01.657Z,7.10
2022-10-30T03:16:33.622Z,6.30
2022-10-30T03:19:00.852Z,7.03
2022-10-30T03:21:29.080Z,6.50
2022-10-30T03:23:57.621Z,6.33
2022-10-30T03:26:24.889Z,9.63
2022-10-30T03:28:52.149Z,6.13
2022-10-30T03:31:22.795Z,8.20
2022-10-30T03:33:49.935Z,6.77
2022-10-30T03:36:31.120Z,9.13
2022-10-30T03:39:00.909Z,7.37
2022-10-30T03:41:30.108Z,6.10
2022-10-30T03:43:57.361Z,6.17
2022-10-30T03:46:24.622Z,6.60
2022-10-30T03:48:51.944Z,5.50
2022-10-30T03:51:19.127Z,6.20
2022-10-30T03:53:46.468Z,6.77
2022-10-30T03:56:13.728Z,6.40
2022-10-30T03:58:42.385Z,6.33
2022-10-30T04:01:12.673Z,7.97
2022-10-30T04:03:40.062Z,7.23
2022-10-30T04:06:07.830Z,4.90
2022-10-30T04:08:35.185Z,6.00
2022-10-30T04:11:02.558Z,6.00
2022-10-30T04:13:29.969Z,5.30
2022-10-30T04:15:58.284Z,5.87
2022-10-30T04:18:28.152Z,5.97
2022-10-30T04:20:56.144Z,6.00
2022-10-30T04:23:25.772Z,6.63
2022-10-30T04:25:56.922Z,7.00
2022-10-30T04:28:24.514Z,7.00
2022-10-30T04:30:58.686Z,7.10
2022-10-30T04:33:26.092Z,5.60
2022-10-30T04:36:25.624Z,6.60
2022-10-30T04:38:53.001Z,8.37
2022-10-30T04:41:20.235Z,7.90
2022-10-30T04:43:51.590Z,5.90
2022-10-30T04:46:21.112Z,7.10
2022-10-30T04:48:48.427Z,7.07
2022-10-30T04:51:16.101Z,8.30
2022-10-30T04:53:43.608Z,8.27
2022-10-30T04:56:10.965Z,8.97
2022-10-30T04:58:41.286Z,6.70
2022-10-30T05:01:09.057Z,6.27
2022-10-30T05:03:36.453Z,5.40
2022-10-30T05:06:09.183Z,5.73
2022-10-30T05:08:36.373Z,5.17
2022-10-30T05:11:06.919Z,4.70
2022-10-30T05:13:34.081Z,6.37
2022-10-30T05:16:01.439Z,6.20
2022-10-30T05:18:28.622Z,6.97
2022-10-30T05:20:55.945Z,5.93
2022-10-30T05:23:23.295Z,5.37
2022-10-30T05:25:50.681Z,5.43
2022-10-30T05:28:18.041Z,8.23
2022-10-30T05:30:52.830Z,6.53
2022-10-30T05:33:20.234Z,6.10
2022-10-30T05:35:54.333Z,8.40
2022-10-30T05:38:21.686Z,6.40
2022-10-30T05:40:48.953Z,6.17
2022-10-30T05:43:18.933Z,5.20
2022-10-30T05:45:50.032Z,5.77
2022-10-30T05:48:17.460Z,5.10
2022-10-30T05:50:47.334Z,6.27
2022-10-30T05:53:15.283Z,5.80
2022-10-30T05:55:42.817Z,5.40
2022-10-30T05:58:12.795Z,5.10
2022-10-30T06:00:44.595Z,6.53
2022-10-30T06:03:12.758Z,5.13
2022-10-30T06:05:48.932Z,10.27
2022-10-30T06:08:16.809Z,7.27
2022-10-30T06:10:44.082Z,6.13
2022-10-30T06:13:12.142Z,5.60
2022-10-30T06:15:39.510Z,6.57
2022-10-30T06:18:18.431Z,5.00
2022-10-30T06:20:45.879Z,6.80
2022-10-30T06:23:15.196Z,9.23
2022-10-30T06:25:42.898Z,9.87
2022-10-30T06:28:11.591Z,5.70
2022-10-30T06:30:39.043Z,12.07
2022-10-30T06:33:10.097Z,7.53
2022-10-30T06:35:40.415Z,6.63
2022-10-30T06:38:09.195Z,6.93
2022-10-30T06:40:39.013Z,6.57
2022-10-30T06:43:09.119Z,5.60
2022-10-30T06:45:36.554Z,4.73
2022-10-30T06:48:03.952Z,7.40
2022-10-30T06:50:31.145Z,4.07
2022-10-30T06:52:58.483Z,4.00
2022-10-30T06:55:26.042Z,5.03
2022-10-30T06:57:55.191Z,5.47
2022-10-30T07:00:30.018Z,4.63
2022-10-30T07:03:05.019Z,4.77
2022-10-30T07:05:34.577Z,4.03
2022-10-30T07:08:03.301Z,5.23
2022-10-30T07:10:32.868Z,4.33
2022-10-30T07:13:17.249Z,5.83
2022-10-30T07:15:44.627Z,5.77
2022-10-30T07:18:12.208Z,4.03
2022-10-30T07:20:48.765Z,5.47
2022-10-30T07:23:16.100Z,4.60
2022-10-30T07:25:43.333Z,4.60
2022-10-30T07:28:10.927Z,6.20
2022-10-30T07:30:38.132Z,7.97
2022-10-30T07:33:07.515Z,6.87
2022-10-30T07:35:36.543Z,5.57
2022-10-30T07:38:10.241Z,7.10
2022-10-30T07:40:37.898Z,4.57
2022-10-30T07:43:05.884Z,5.93
2022-10-30T07:45:33.427Z,5.53
2022-10-30T07:48:01.212Z,4.87
2022-10-30T07:50:28.892Z,5.63
2022-10-30T07:52:56.962Z,5.87
2022-10-30T07:55:24.589Z,6.20
2022-10-30T07:57:51.864Z,6.10
2022-10-30T08:00:19.245Z,6.30
2022-10-30T08:02:50.945Z,8.10
2022-10-30T08:05:18.733Z,5.90
2022-10-30T08:07:47.490Z,6.60
2022-10-30T08:10:14.748Z,10.27
2022-10-30T08:12:44.093Z,8.97
2022-10-30T08:15:12.164Z,15.13
2022-10-30T08:17:47.711Z,7.13
2022-10-30T08:20:17.478Z,5.97
2022-10-30T08:22:45.680Z,5.93
2022-10-30T08:25:13.290Z,5.23
2022-10-30T08:27:45.039Z,7.97
2022-10-30T08:30:37.651Z,5.13
2022-10-30T08:33:07.782Z,4.70
2022-10-30T08:38:04.086Z,4.40
2022-10-30T08:40:31.407Z,5.85
2022-10-30T08:42:58.809Z,4.47
2022-10-30T08:45:29.960Z,4.78
2022-10-30T08:48:01.503Z,5.00
2022-10-30T08:50:30.076Z,4.80
2022-10-30T08:53:02.840Z,9.68
2022-10-30T08:55:32.463Z,8.80
2022-10-30T08:58:00.339Z,5.40
2022-10-30T09:00:28.364Z,4.70
2022-10-30T09:02:56.305Z,4.88
2022-10-30T09:05:23.986Z,4.70
2022-10-30T09:07:56.583Z,4.45
2022-10-30T09:10:24.254Z,4.40
2022-10-30T09:12:56.234Z,4.75
2022-10-30T09:15:26.980Z,4.72
2022-10-30T09:17:59.589Z,3.60
2022-10-30T09:20:28.471Z,4.63
2022-10-30T09:22:59.344Z,4.03
2022-10-30T09:25:27.354Z,4.35
2022-10-30T09:27:55.076Z,4.65
2022-10-30T09:30:25.600Z,4.20
2022-10-30T09:32:58.285Z,3.80
2022-10-30T09:35:26.780Z,3.60
2022-10-30T09:37:54.586Z,4.18
2022-10-30T09:40:42.061Z,3.60
2022-10-30T09:43:35.463Z,4.05
2022-10-30T09:46:20.184Z,3.85
2022-10-30T09:49:11.354Z,4.20
2022-10-30T09:51:47.821Z,4.43
2022-10-30T09:54:36.214Z,4.53
2022-10-30T09:57:25.325Z,4.30
2022-10-30T10:00:17.158Z,5.22
2022-10-30T10:02:53.867Z,5.50
2022-10-30T10:05:36.436Z,4.45
2022-10-30T10:08:08.916Z,3.20
2022-10-30T10:10:45.798Z,3.50
2022-10-30T10:13:25.308Z,3.55
2022-10-30T10:16:02.519Z,3.65
2022-10-30T10:19:04.077Z,3.72
2022-10-30T10:21:40.142Z,3.72
2022-10-30T10:24:25.197Z,3.70
2022-10-30T10:27:20.529Z,3.90
2022-10-30T10:30:06.467Z,3.58
2022-10-30T10:32:52.474Z,3.97
2022-10-30T10:35:51.021Z,3.95
2022-10-30T10:38:28.308Z,4.25
2022-10-30T10:41:04.855Z,3.60
2022-10-30T10:44:02.989Z,3.90
2022-10-30T10:46:54.037Z,3.28
2022-10-30T10:49:35.922Z,3.83
2022-10-30T10:52:15.331Z,3.42
2022-10-30T10:54:54.603Z,4.13
2022-10-30T10:57:42.528Z,3.80
2022-10-30T11:00:21.362Z,4.50
2022-10-30T11:03:07.580Z,3.63
2022-10-30T11:05:55.656Z,3.78
2022-10-30T11:08:31.870Z,3.88
2022-10-30T11:11:05.294Z,3.53
2022-10-30T11:13:44.213Z,3.65
2022-10-30T11:16:39.794Z,4.10
2022-10-30T11:19:10.647Z,3.55
2022-10-30T11:21:50.100Z,4.13
2022-10-30T11:24:34.893Z,3.88
2022-10-30T11:27:33.137Z,3.00
2022-10-30T11:30:24.383Z,3.65
2022-10-30T11:33:01.196Z,4.22
2022-10-30T11:35:28.632Z,3.90
2022-10-30T11:38:19.925Z,4.05
2022-10-30T11:40:54.779Z,3.55
2022-10-30T11:43:28.680Z,3.83
2022-10-30T11:45:59.365Z,3.90
2022-10-30T11:48:32.828Z,3.78
2022-10-30T11:51:02.161Z,4.00
2022-10-30T11:53:39.338Z,3.65
2022-10-30T11:56:21.561Z,4.20
2022-10-30T11:58:55.649Z,3.63
2022-10-30T12:01:41.728Z,3.63
2022-10-30T12:04:22.410Z,4.43
2022-10-30T12:07:20.949Z,3.53
2022-10-30T12:09:50.561Z,4.45
2022-10-30T12:12:31.900Z,3.50
2022-10-30T12:15:18.712Z,4.03
2022-10-30T12:18:04.911Z,3.90
2022-10-30T12:20:37.212Z,3.30
2022-10-30T12:23:17.933Z,3.65
2022-10-30T12:26:02.796Z,3.75
2022-10-30T12:28:33.160Z,3.88
2022-10-30T12:31:16.498Z,3.58
2022-10-30T12:33:46.751Z,3.63
2022-10-30T12:36:34.480Z,3.83
2022-10-30T12:39:18.116Z,3.95
2022-10-30T12:41:54.386Z,3.50
2022-10-30T12:44:50.755Z,3.90
2022-10-30T12:47:39.021Z,3.22
2022-10-30T12:50:28.020Z,3.42
2022-10-30T12:53:15.088Z,4.00
2022-10-30T12:55:48.057Z,4.65
2022-10-30T12:58:28.469Z,3.90
2022-10-30T13:01:12.173Z,3.97
2022-10-30T13:04:10.613Z,3.85
2022-10-30T13:07:09.989Z,3.50
2022-10-30T13:10:06.918Z,3.90
2022-10-30T13:12:39.141Z,3.50
2022-10-30T13:15:17.348Z,3.40
2022-10-30T13:17:44.639Z,3.05
2022-10-30T13:20:14.828Z,3.30
2022-10-30T13:22:54.339Z,3.70
2022-10-30T13:25:27.553Z,3.20
2022-10-30T13:28:30.232Z,3.85
2022-10-30T13:31:37.758Z,3.75
2022-10-30T13:34:30.954Z,3.33
2022-10-30T13:37:26.462Z,3.60
2022-10-30T13:40:12.804Z,3.53
2022-10-30T13:42:46.024Z,3.38
2022-10-30T13:45:36.176Z,3.33
2022-10-30T13:48:36.745Z,3.67
2022-10-30T13:51:06.899Z,3.42
2022-10-30T13:53:38.504Z,3.70
2022-10-30T13:56:06.861Z,3.95
2022-10-30T13:58:46.432Z,3.97
2022-10-30T14:01:16.581Z,4.00
2022-10-30T14:03:53.394Z,4.05
2022-10-30T14:06:48.570Z,4.20
2022-10-30T14:09:39.435Z,3.72
2022-10-30T14:12:52.447Z,3.83
2022-10-30T14:15:34.896Z,3.38
2022-10-30T14:18:12.414Z,3.58
2022-10-30T14:20:40.523Z,3.30
2022-10-30T14:23:13.222Z,11.38
2022-10-30T14:25:41.159Z,3.20
2022-10-30T14:28:21.420Z,3.65
2022-10-30T14:31:01.289Z,3.63
2022-10-30T14:33:41.581Z,4.00
2022-10-30T14:36:46.592Z,8.82
2022-10-30T14:39:13.789Z,3.40
2022-10-30T14:41:47.916Z,3.38
2022-10-30T14:44:37.039Z,3.53
2022-10-30T14:47:11.059Z,3.00
2022-10-30T14:49:48.434Z,4.55
2022-10-30T14:52:54.625Z,3.47
2022-10-30T14:58:03.346Z,3.10
2022-10-30T15:00:42.584Z,3.45
2022-10-30T15:03:14.846Z,3.53
2022-10-30T15:06:03.906Z,4.00
2022-10-30T15:08:48.168Z,3.20
2022-10-30T15:11:34.968Z,3.17
2022-10-30T15:14:20.827Z,3.45
2022-10-30T15:16:51.319Z,3.70
2022-10-30T15:19:20.975Z,3.50
2022-10-30T15:21:52.389Z,3.53
2022-10-30T15:24:29.553Z,3.25
2022-10-30T15:27:00.574Z,3.30
2022-10-30T15:29:34.984Z,3.50
2022-10-30T15:32:05.365Z,3.50
2022-10-30T15:34:33.742Z,3.35
2022-10-30T15:37:11.660Z,3.60
2022-10-30T15:39:39.158Z,3.92
2022-10-30T15:42:06.476Z,3.60
2022-10-30T15:44:40.202Z,5.20
2022-10-30T15:47:15.438Z,4.70
2022-10-30T15:49:50.303Z,3.85
2022-10-30T15:52:25.458Z,5.00
2022-10-30T15:54:58.096Z,4.95
2022-10-30T15:58:01.185Z,5.38
2022-10-30T16:00:30.065Z,4.85
2022-10-30T16:03:12.702Z,6.25
2022-10-30T16:05:40.051Z,6.78
2022-10-30T16:08:15.706Z,6.55
2022-10-30T16:10:45.289Z,8.52
2022-10-30T16:13:18.783Z,7.97
2022-10-30T16:15:50.300Z,8.75
2022-10-30T16:18:32.068Z,4.88
2022-10-30T16:21:10.495Z,5.47
2022-10-30T16:23:47.681Z,8.33
2022-10-30T16:26:33.140Z,8.27
2022-10-30T16:29:21.521Z,12.43
2022-10-30T16:31:50.332Z,7.20
2022-10-30T16:34:24.091Z,4.77
2022-10-30T16:36:51.955Z,4.90
2022-10-30T16:39:20.455Z,6.63
2022-10-30T16:41:48.323Z,10.87
2022-10-30T16:44:27.106Z,9.03
2022-10-30T16:47:17.843Z,10.73
2022-10-30T16:49:56.600Z,7.00
2022-10-30T16:52:43.410Z,7.10
2022-10-30T16:55:22.731Z,5.27
2022-10-30T16:57:55.940Z,7.03
2022-10-30T17:00:27.329Z,9.67
2022-10-30T17:02:57.942Z,7.63
2022-10-30T17:05:31.435Z,7.10
2022-10-30T17:08:10.018Z,7.43
2022-10-30T17:10:54.454Z,13.17
2022-10-30T17:13:38.039Z,9.37
2022-10-30T17:16:14.088Z,17.43
2022-10-30T17:18:41.223Z,10.20
2022-10-30T17:21:14.051Z,7.13
2022-10-30T17:23:46.835Z,6.70
2022-10-30T17:26:14.909Z,7.30
2022-10-30T17:28:43.044Z,8.70
2022-10-30T17:31:29.827Z,7.40
2022-10-30T17:34:02.859Z,10.53
2022-10-30T17:36:30.363Z,9.10
2022-10-30T17:38:57.666Z,9.53
2022-10-30T17:41:24.916Z,10.37
2022-10-30T17:43:54.798Z,6.80
2022-10-30T17:46:25.061Z,7.40
2022-10-30T17:48:52.178Z,7.50
2022-10-30T17:51:20.177Z,12.57
2022-10-30T17:53:51.335Z,8.10
2022-10-30T17:56:33.300Z,7.40
2022-10-30T17:59:00.568Z,8.50
2022-10-30T18:01:27.947Z,9.47
2022-10-30T18:03:55.920Z,9.07
2022-10-30T18:06:25.876Z,8.47
2022-10-30T18:08:53.667Z,10.77
2022-10-30T18:11:23.839Z,9.43
2022-10-30T18:13:52.249Z,8.53
2022-10-30T18:16:19.730Z,9.70
2022-10-30T18:18:47.114Z,11.10
2022-10-30T18:21:20.376Z,10.90
2022-10-30T18:23:52.464Z,10.27
2022-10-30T18:26:23.885Z,9.87
2022-10-30T18:28:51.264Z,15.30
2022-10-30T18:31:21.652Z,14.43
2022-10-30T18:33:49.243Z,12.30
2022-10-30T18:36:21.819Z,9.43
2022-10-30T18:38:49.517Z,9.10
2022-10-30T18:41:24.850Z,10.87
2022-10-30T18:43:52.117Z,11.07
2022-10-30T18:46:19.422Z,8.93
2022-10-30T18:48:46.630Z,7.23
2022-10-30T18:51:23.059Z,7.23
2022-10-30T18:53:53.024Z,6.13
2022-10-30T18:56:25.485Z,8.93
2022-10-30T18:58:56.714Z,5.93
2022-10-30T19:01:31.588Z,5.70
2022-10-30T19:04:03.898Z,6.37
2022-10-30T19:06:34.415Z,6.70
2022-10-30T19:09:02.369Z,4.77
2022-10-30T19:11:31.917Z,7.13
2022-10-30T19:14:13.747Z,5.97
2022-10-30T19:16:41.221Z,5.40
2022-10-30T19:19:09.129Z,6.50
2022-10-30T19:21:36.716Z,6.03
2022-10-30T19:24:12.637Z,6.60
2022-10-30T19:26:39.767Z,6.50
2022-10-30T19:29:07.039Z,5.90
2022-10-30T19:31:37.021Z,7.40
2022-10-30T19:34:04.315Z,7.17
2022-10-30T19:36:36.441Z,6.50
2022-10-30T19:39:09.091Z,5.83
2022-10-30T19:41:37.581Z,5.83
2022-10-30T19:44:05.328Z,5.83
2022-10-30T19:46:32.591Z,6.80
2022-10-30T19:49:00.487Z,9.20
2022-10-30T19:51:28.725Z,6.60
2022-10-30T19:53:57.890Z,4.77
2022-10-30T19:56:30.012Z,3.60
2022-10-30T19:59:00.167Z,5.07
2022-10-30T20:01:28.129Z,5.43
2022-10-30T20:04:01.919Z,3.57
2022-10-30T20:06:35.433Z,5.00
2022-10-30T20:09:03.232Z,5.50
2022-10-30T20:11:32.440Z,3.73
2022-10-30T20:13:59.954Z,4.00
2022-10-30T20:16:27.268Z,4.80
2022-10-30T20:18:54.967Z,6.90
2022-10-30T20:21:22.358Z,4.40
2022-10-30T20:23:51.102Z,5.43
2022-10-30T20:26:30.200Z,5.07
2022-10-30T20:29:00.930Z,6.70
2022-10-30T20:31:28.378Z,11.87
2022-10-30T20:33:58.953Z,5.20
2022-10-30T20:36:27.431Z,9.00
2022-10-30T20:38:57.574Z,6.00
2022-10-30T20:41:28.555Z,6.80
2022-10-30T20:44:04.265Z,4.90
2022-10-30T20:46:31.848Z,5.03
2022-10-30T20:49:01.329Z,4.70
2022-10-30T20:51:38.028Z,4.13
2022-10-30T20:54:08.471Z,6.80
2022-10-30T20:56:35.866Z,4.53
2022-10-30T20:59:06.852Z,5.47
2022-10-30T21:01:34.994Z,5.80
2022-10-30T21:04:03.160Z,8.33
2022-10-30T21:06:38.257Z,5.13
2022-10-30T21:09:05.464Z,4.60
2022-10-30T21:11:35.668Z,5.27
2022-10-30T21:14:02.925Z,4.30
2022-10-30T21:16:30.185Z,6.70
2022-10-30T21:18:57.492Z,4.13
2022-10-30T21:21:25.993Z,4.17
2022-10-30T21:23:58.056Z,3.67
2022-10-30T21:26:27.419Z,4.23
2022-10-30T21:28:55.536Z,4.60
2022-10-30T21:31:25.846Z,4.37
2022-10-30T21:33:53.866Z,4.43
2022-10-30T21:36:24.857Z,3.87
2022-10-30T21:38:55.508Z,5.10
2022-10-30T21:41:26.292Z,5.13
2022-10-30T21:44:01.759Z,6.53
2022-10-30T21:46:49.893Z,6.20
2022-10-30T21:49:36.890Z,6.33
2022-10-30T21:52:06.808Z,5.77
2022-10-30T21:54:36.612Z,5.83
2022-10-30T21:57:04.177Z,5.97
2022-10-30T21:59:34.812Z,6.27
2022-10-30T22:02:02.543Z,7.03
2022-10-30T22:04:31.389Z,5.23
2022-10-30T22:06:58.787Z,6.07
2022-10-30T22:09:26.398Z,5.20
2022-10-30T22:12:02.943Z,5.83
2022-10-30T22:14:30.732Z,5.13
2022-10-30T22:17:00.580Z,5.63
2022-10-30T22:19:29.345Z,4.97
2022-10-30T22:21:57.060Z,5.70
2022-10-30T22:24:24.393Z,5.77
2022-10-30T22:26:52.093Z,6.13
2022-10-30T22:29:19.367Z,5.50
2022-10-30T22:31:46.767Z,5.27
2022-10-30T22:34:14.024Z,5.97
2022-10-30T22:36:41.861Z,5.37
2022-10-30T22:39:12.691Z,4.10
2022-10-30T22:41:47.199Z,5.10
2022-10-30T22:44:17.670Z,5.60
2022-10-30T22:46:45.483Z,5.90
2022-10-30T22:49:18.066Z,5.47
2022-10-30T22:51:45.546Z,5.50
2022-10-30T22:54:12.911Z,4.80
2022-10-30T22:56:41.565Z,4.70
2022-10-30T22:59:12.587Z,4.63
2022-10-30T23:01:43.656Z,5.03
2022-10-30T23:04:12.103Z,4.47
2022-10-30T23:06:39.862Z,5.70
2022-10-30T23:09:12.135Z,4.10
2022-10-30T23:11:39.516Z,4.20
2022-10-30T23:14:09.012Z,3.83
2022-10-30T23:16:36.714Z,4.57
2022-10-30T23:19:04.226Z,4.63
2022-10-30T23:21:32.303Z,4.50
2022-10-30T23:24:03.346Z,4.20
2022-10-30T23:26:33.255Z,4.03
2022-10-30T23:29:01.558Z,4.10
2022-10-30T23:31:32.978Z,9.60
2022-10-30T23:34:02.788Z,7.60
2022-10-30T23:36:31.824Z,9.43
2022-10-30T23:39:01.891Z,11.10
2022-10-30T23:41:31.830Z,9.90
2022-10-30T23:44:07.797Z,12.40
2022-10-30T23:46:35.552Z,11.70
2022-10-30T23:49:04.044Z,12.43
2022-10-30T23:51:32.168Z,13.70
2022-10-30T23:53:59.682Z,12.20
2022-10-30T23:56:27.437Z,10.83
2022-10-30T23:58:57.283Z,8.53
